sensor_id;sensor_type;location;lat;lon;timestamp;temperature;humidity
27072;DHT22;14613;46.308;25.288;2022-12-07T00:01:09;8.50;84.30
27072;DHT22;14613;46.308;25.288;2022-12-07T00:03:35;8.60;84.30
27072;DHT22;14613;46.308;25.288;2022-12-07T00:06:02;8.60;84.30
27072;DHT22;14613;46.308;25.288;2022-12-07T00:08:29;8.60;84.30
27072;DHT22;14613;46.308;25.288;2022-12-07T00:10:55;8.60;84.40
27072;DHT22;14613;46.308;25.288;2022-12-07T00:13:21;8.60;84.50
27072;DHT22;14613;46.308;25.288;2022-12-07T00:15:46;8.60;84.40
27072;DHT22;14613;46.308;25.288;2022-12-07T00:18:12;8.60;84.40
27072;DHT22;14613;46.308;25.288;2022-12-07T00:20:38;8.60;84.50
27072;DHT22;14613;46.308;25.288;2022-12-07T00:23:03;8.60;84.40
27072;DHT22;14613;46.308;25.288;2022-12-07T00:25:30;8.60;84.40
27072;DHT22;14613;46.308;25.288;2022-12-07T00:27:56;8.60;84.50
27072;DHT22;14613;46.308;25.288;2022-12-07T00:30:22;8.60;84.40
27072;DHT22;14613;46.308;25.288;2022-12-07T00:32:49;8.60;84.30
27072;DHT22;14613;46.308;25.288;2022-12-07T00:35:15;8.60;84.30
27072;DHT22;14613;46.308;25.288;2022-12-07T00:37:40;8.60;84.30
27072;DHT22;14613;46.308;25.288;2022-12-07T00:40:06;8.70;84.40
27072;DHT22;14613;46.308;25.288;2022-12-07T00:42:33;8.70;84.50
27072;DHT22;14613;46.308;25.288;2022-12-07T00:44:59;8.60;84.40
27072;DHT22;14613;46.308;25.288;2022-12-07T00:47:24;8.60;84.50
27072;DHT22;14613;46.308;25.288;2022-12-07T00:49:50;8.60;84.60
27072;DHT22;14613;46.308;25.288;2022-12-07T00:52:16;8.60;84.80
27072;DHT22;14613;46.308;25.288;2022-12-07T00:54:41;8.50;84.90
27072;DHT22;14613;46.308;25.288;2022-12-07T00:57:07;8.50;84.90
27072;DHT22;14613;46.308;25.288;2022-12-07T00:59:33;8.50;85.00
27072;DHT22;14613;46.308;25.288;2022-12-07T01:01:58;8.50;85.20
27072;DHT22;14613;46.308;25.288;2022-12-07T01:04:24;8.40;85.20
27072;DHT22;14613;46.308;25.288;2022-12-07T01:06:50;8.40;85.20
27072;DHT22;14613;46.308;25.288;2022-12-07T01:09:16;8.50;85.20
27072;DHT22;14613;46.308;25.288;2022-12-07T01:11:41;8.50;85.20
27072;DHT22;14613;46.308;25.288;2022-12-07T01:14:08;8.40;85.30
27072;DHT22;14613;46.308;25.288;2022-12-07T01:16:34;8.40;85.30
27072;DHT22;14613;46.308;25.288;2022-12-07T01:19:00;8.40;85.50
27072;DHT22;14613;46.308;25.288;2022-12-07T01:21:29;8.40;85.70
27072;DHT22;14613;46.308;25.288;2022-12-07T01:23:57;8.40;85.80
27072;DHT22;14613;46.308;25.288;2022-12-07T01:26:24;8.30;85.90
27072;DHT22;14613;46.308;25.288;2022-12-07T01:28:50;8.30;85.90
27072;DHT22;14613;46.308;25.288;2022-12-07T01:31:19;8.30;85.90
27072;DHT22;14613;46.308;25.288;2022-12-07T01:33:47;8.40;85.90
27072;DHT22;14613;46.308;25.288;2022-12-07T01:36:25;8.40;85.70
27072;DHT22;14613;46.308;25.288;2022-12-07T01:38:55;8.40;85.50
27072;DHT22;14613;46.308;25.288;2022-12-07T01:41:23;8.50;85.50
27072;DHT22;14613;46.308;25.288;2022-12-07T01:46:37;8.50;85.20
27072;DHT22;14613;46.308;25.288;2022-12-07T01:49:10;8.50;85.20
27072;DHT22;14613;46.308;25.288;2022-12-07T01:51:38;8.50;85.20
27072;DHT22;14613;46.308;25.288;2022-12-07T01:54:07;8.50;85.20
27072;DHT22;14613;46.308;25.288;2022-12-07T01:56:33;8.50;85.20
27072;DHT22;14613;46.308;25.288;2022-12-07T01:59:00;8.50;85.20
27072;DHT22;14613;46.308;25.288;2022-12-07T02:01:26;8.40;85.30
27072;DHT22;14613;46.308;25.288;2022-12-07T02:03:52;8.40;85.60
27072;DHT22;14613;46.308;25.288;2022-12-07T02:06:21;8.30;85.90
27072;DHT22;14613;46.308;25.288;2022-12-07T02:08:48;8.30;86.20
27072;DHT22;14613;46.308;25.288;2022-12-07T02:11:14;8.30;86.30
27072;DHT22;14613;46.308;25.288;2022-12-07T02:13:41;8.30;86.40
27072;DHT22;14613;46.308;25.288;2022-12-07T02:27:20;8.40;86.10
27072;DHT22;14613;46.308;25.288;2022-12-07T02:35:30;8.50;85.80
27072;DHT22;14613;46.308;25.288;2022-12-07T02:38:33;8.50;85.80
27072;DHT22;14613;46.308;25.288;2022-12-07T02:41:33;8.40;85.90
27072;DHT22;14613;46.308;25.288;2022-12-07T02:44:03;8.40;86.10
27072;DHT22;14613;46.308;25.288;2022-12-07T02:46:42;8.40;86.30
27072;DHT22;14613;46.308;25.288;2022-12-07T02:49:08;8.40;86.40
27072;DHT22;14613;46.308;25.288;2022-12-07T02:51:40;8.40;86.40
27072;DHT22;14613;46.308;25.288;2022-12-07T02:54:24;8.40;86.40
27072;DHT22;14613;46.308;25.288;2022-12-07T02:59:33;8.40;86.30
27072;DHT22;14613;46.308;25.288;2022-12-07T03:02:17;8.40;86.30
27072;DHT22;14613;46.308;25.288;2022-12-07T03:11:00;8.40;86.30
27072;DHT22;14613;46.308;25.288;2022-12-07T03:16:43;8.30;86.30
27072;DHT22;14613;46.308;25.288;2022-12-07T03:19:12;8.30;86.40
27072;DHT22;14613;46.308;25.288;2022-12-07T03:21:41;8.30;86.50
27072;DHT22;14613;46.308;25.288;2022-12-07T03:24:24;8.30;86.40
27072;DHT22;14613;46.308;25.288;2022-12-07T03:26:57;8.30;86.40
27072;DHT22;14613;46.308;25.288;2022-12-07T03:29:30;8.20;86.40
27072;DHT22;14613;46.308;25.288;2022-12-07T03:32:14;8.20;86.60
27072;DHT22;14613;46.308;25.288;2022-12-07T03:34:52;8.10;86.80
27072;DHT22;14613;46.308;25.288;2022-12-07T03:37:29;8.10;86.80
27072;DHT22;14613;46.308;25.288;2022-12-07T03:40:17;8.10;86.80
27072;DHT22;14613;46.308;25.288;2022-12-07T03:42:43;8.10;86.70
27072;DHT22;14613;46.308;25.288;2022-12-07T03:45:10;8.10;86.60
27072;DHT22;14613;46.308;25.288;2022-12-07T03:47:59;8.20;86.70
27072;DHT22;14613;46.308;25.288;2022-12-07T03:53:15;8.10;86.70
27072;DHT22;14613;46.308;25.288;2022-12-07T03:55:46;8.10;86.80
27072;DHT22;14613;46.308;25.288;2022-12-07T03:58:16;8.20;86.80
27072;DHT22;14613;46.308;25.288;2022-12-07T04:00:43;8.20;86.80
27072;DHT22;14613;46.308;25.288;2022-12-07T04:03:10;8.20;86.80
27072;DHT22;14613;46.308;25.288;2022-12-07T04:05:36;8.20;86.80
27072;DHT22;14613;46.308;25.288;2022-12-07T04:08:02;8.20;86.70
27072;DHT22;14613;46.308;25.288;2022-12-07T04:10:28;8.30;86.70
27072;DHT22;14613;46.308;25.288;2022-12-07T04:12:53;8.30;86.70
27072;DHT22;14613;46.308;25.288;2022-12-07T04:15:19;8.30;86.60
27072;DHT22;14613;46.308;25.288;2022-12-07T04:17:45;8.30;86.60
27072;DHT22;14613;46.308;25.288;2022-12-07T04:20:11;8.30;86.70
27072;DHT22;14613;46.308;25.288;2022-12-07T04:22:37;8.30;86.80
27072;DHT22;14613;46.308;25.288;2022-12-07T04:25:03;8.30;86.80
27072;DHT22;14613;46.308;25.288;2022-12-07T04:27:29;8.30;86.80
27072;DHT22;14613;46.308;25.288;2022-12-07T04:29:55;8.30;86.80
27072;DHT22;14613;46.308;25.288;2022-12-07T04:32:21;8.30;86.70
27072;DHT22;14613;46.308;25.288;2022-12-07T04:34:47;8.30;86.70
27072;DHT22;14613;46.308;25.288;2022-12-07T04:37:13;8.40;86.80
27072;DHT22;14613;46.308;25.288;2022-12-07T04:39:39;8.30;86.80
27072;DHT22;14613;46.308;25.288;2022-12-07T04:42:04;8.30;86.80
27072;DHT22;14613;46.308;25.288;2022-12-07T04:44:30;8.30;87.80
27072;DHT22;14613;46.308;25.288;2022-12-07T04:46:57;8.30;87.00
27072;DHT22;14613;46.308;25.288;2022-12-07T04:49:23;8.30;87.10
27072;DHT22;14613;46.308;25.288;2022-12-07T04:51:49;8.30;87.10
27072;DHT22;14613;46.308;25.288;2022-12-07T04:54:16;8.20;87.10
27072;DHT22;14613;46.308;25.288;2022-12-07T04:56:42;8.20;87.10
27072;DHT22;14613;46.308;25.288;2022-12-07T04:59:08;8.20;87.20
27072;DHT22;14613;46.308;25.288;2022-12-07T05:01:34;8.20;87.20
27072;DHT22;14613;46.308;25.288;2022-12-07T05:04:00;8.20;87.20
27072;DHT22;14613;46.308;25.288;2022-12-07T05:06:26;8.10;87.20
27072;DHT22;14613;46.308;25.288;2022-12-07T05:08:52;8.10;87.30
27072;DHT22;14613;46.308;25.288;2022-12-07T05:11:18;8.00;87.30
27072;DHT22;14613;46.308;25.288;2022-12-07T05:14:03;8.00;87.30
27072;DHT22;14613;46.308;25.288;2022-12-07T05:16:29;8.00;87.30
27072;DHT22;14613;46.308;25.288;2022-12-07T05:18:55;8.00;87.30
27072;DHT22;14613;46.308;25.288;2022-12-07T05:21:21;8.00;87.30
27072;DHT22;14613;46.308;25.288;2022-12-07T05:23:47;8.00;87.20
27072;DHT22;14613;46.308;25.288;2022-12-07T05:26:12;8.00;87.10
27072;DHT22;14613;46.308;25.288;2022-12-07T05:28:38;8.00;87.10
27072;DHT22;14613;46.308;25.288;2022-12-07T05:31:04;8.00;86.90
27072;DHT22;14613;46.308;25.288;2022-12-07T05:33:30;8.00;86.80
27072;DHT22;14613;46.308;25.288;2022-12-07T05:35:55;8.00;86.80
27072;DHT22;14613;46.308;25.288;2022-12-07T05:38:21;7.90;86.70
27072;DHT22;14613;46.308;25.288;2022-12-07T05:40:47;7.90;86.70
27072;DHT22;14613;46.308;25.288;2022-12-07T05:43:13;7.90;86.60
27072;DHT22;14613;46.308;25.288;2022-12-07T05:45:38;7.90;86.70
27072;DHT22;14613;46.308;25.288;2022-12-07T05:48:04;7.80;86.70
27072;DHT22;14613;46.308;25.288;2022-12-07T05:50:30;7.80;86.50
27072;DHT22;14613;46.308;25.288;2022-12-07T05:52:55;7.80;86.50
27072;DHT22;14613;46.308;25.288;2022-12-07T05:55:21;7.80;86.60
27072;DHT22;14613;46.308;25.288;2022-12-07T05:57:47;7.80;86.50
27072;DHT22;14613;46.308;25.288;2022-12-07T06:00:32;7.80;86.50
27072;DHT22;14613;46.308;25.288;2022-12-07T06:02:58;7.80;86.40
27072;DHT22;14613;46.308;25.288;2022-12-07T06:05:23;7.80;86.40
27072;DHT22;14613;46.308;25.288;2022-12-07T06:07:49;7.80;86.40
27072;DHT22;14613;46.308;25.288;2022-12-07T06:10:15;7.80;86.50
27072;DHT22;14613;46.308;25.288;2022-12-07T06:12:41;7.80;86.50
27072;DHT22;14613;46.308;25.288;2022-12-07T06:15:09;7.80;86.50
27072;DHT22;14613;46.308;25.288;2022-12-07T06:17:36;7.80;86.50
27072;DHT22;14613;46.308;25.288;2022-12-07T06:20:03;7.80;86.50
27072;DHT22;14613;46.308;25.288;2022-12-07T06:22:28;7.80;86.50
27072;DHT22;14613;46.308;25.288;2022-12-07T06:24:54;7.80;86.50
27072;DHT22;14613;46.308;25.288;2022-12-07T06:27:20;7.80;86.40
27072;DHT22;14613;46.308;25.288;2022-12-07T06:29:46;7.80;86.40
27072;DHT22;14613;46.308;25.288;2022-12-07T06:32:11;7.80;86.40
27072;DHT22;14613;46.308;25.288;2022-12-07T06:34:37;7.80;86.40
27072;DHT22;14613;46.308;25.288;2022-12-07T06:37:03;7.80;86.50
27072;DHT22;14613;46.308;25.288;2022-12-07T06:39:29;7.80;86.40
27072;DHT22;14613;46.308;25.288;2022-12-07T06:41:56;7.80;86.30
27072;DHT22;14613;46.308;25.288;2022-12-07T06:44:22;7.80;86.40
27072;DHT22;14613;46.308;25.288;2022-12-07T06:46:49;7.80;86.50
27072;DHT22;14613;46.308;25.288;2022-12-07T06:49:15;7.90;86.70
27072;DHT22;14613;46.308;25.288;2022-12-07T06:51:42;7.90;87.00
27072;DHT22;14613;46.308;25.288;2022-12-07T06:54:12;7.90;86.70
27072;DHT22;14613;46.308;25.288;2022-12-07T06:56:38;7.90;86.70
27072;DHT22;14613;46.308;25.288;2022-12-07T06:59:05;7.90;86.80
27072;DHT22;14613;46.308;25.288;2022-12-07T07:01:32;8.00;86.80
27072;DHT22;14613;46.308;25.288;2022-12-07T07:03:58;8.10;86.80
27072;DHT22;14613;46.308;25.288;2022-12-07T07:06:24;8.20;86.80
27072;DHT22;14613;46.308;25.288;2022-12-07T07:08:50;8.20;86.70
27072;DHT22;14613;46.308;25.288;2022-12-07T07:11:15;8.20;86.70
27072;DHT22;14613;46.308;25.288;2022-12-07T07:13:41;8.30;87.50
27072;DHT22;14613;46.308;25.288;2022-12-07T07:16:07;8.30;86.60
27072;DHT22;14613;46.308;25.288;2022-12-07T07:18:33;8.40;86.70
27072;DHT22;14613;46.308;25.288;2022-12-07T07:20:59;8.40;86.60
27072;DHT22;14613;46.308;25.288;2022-12-07T07:23:25;8.50;86.50
27072;DHT22;14613;46.308;25.288;2022-12-07T07:25:50;8.50;86.50
27072;DHT22;14613;46.308;25.288;2022-12-07T07:28:16;8.60;86.50
27072;DHT22;14613;46.308;25.288;2022-12-07T07:30:42;8.60;86.50
27072;DHT22;14613;46.308;25.288;2022-12-07T07:33:09;8.60;86.30
27072;DHT22;14613;46.308;25.288;2022-12-07T07:35:35;8.70;86.30
27072;DHT22;14613;46.308;25.288;2022-12-07T07:38:01;8.70;86.30
27072;DHT22;14613;46.308;25.288;2022-12-07T07:40:28;8.70;86.30
27072;DHT22;14613;46.308;25.288;2022-12-07T07:42:55;8.70;86.20
27072;DHT22;14613;46.308;25.288;2022-12-07T07:45:22;8.80;86.20
27072;DHT22;14613;46.308;25.288;2022-12-07T07:47:48;8.80;86.30
27072;DHT22;14613;46.308;25.288;2022-12-07T07:50:14;8.80;86.40
27072;DHT22;14613;46.308;25.288;2022-12-07T07:52:40;8.90;86.50
27072;DHT22;14613;46.308;25.288;2022-12-07T07:55:07;9.00;86.60
27072;DHT22;14613;46.308;25.288;2022-12-07T07:57:38;9.10;86.60
27072;DHT22;14613;46.308;25.288;2022-12-07T08:00:05;9.10;86.60
27072;DHT22;14613;46.308;25.288;2022-12-07T08:02:31;9.10;86.50
27072;DHT22;14613;46.308;25.288;2022-12-07T08:04:57;9.20;86.50
27072;DHT22;14613;46.308;25.288;2022-12-07T08:07:23;9.20;86.50
27072;DHT22;14613;46.308;25.288;2022-12-07T08:09:48;9.20;86.60
27072;DHT22;14613;46.308;25.288;2022-12-07T08:12:14;9.30;86.60
27072;DHT22;14613;46.308;25.288;2022-12-07T08:14:40;9.30;86.60
27072;DHT22;14613;46.308;25.288;2022-12-07T08:17:06;9.30;86.70
27072;DHT22;14613;46.308;25.288;2022-12-07T08:19:33;9.40;86.80
27072;DHT22;14613;46.308;25.288;2022-12-07T08:21:58;9.50;86.40
27072;DHT22;14613;46.308;25.288;2022-12-07T08:24:24;9.50;86.40
27072;DHT22;14613;46.308;25.288;2022-12-07T08:26:50;9.50;86.30
27072;DHT22;14613;46.308;25.288;2022-12-07T08:29:16;9.50;86.30
27072;DHT22;14613;46.308;25.288;2022-12-07T08:31:42;9.60;86.30
27072;DHT22;14613;46.308;25.288;2022-12-07T08:34:10;9.70;86.00
27072;DHT22;14613;46.308;25.288;2022-12-07T08:36:37;9.70;85.60
27072;DHT22;14613;46.308;25.288;2022-12-07T08:39:03;9.70;85.40
27072;DHT22;14613;46.308;25.288;2022-12-07T08:41:29;9.70;85.20
27072;DHT22;14613;46.308;25.288;2022-12-07T08:43:54;9.70;85.30
27072;DHT22;14613;46.308;25.288;2022-12-07T08:46:45;9.80;85.40
27072;DHT22;14613;46.308;25.288;2022-12-07T08:49:39;9.80;85.30
27072;DHT22;14613;46.308;25.288;2022-12-07T08:52:06;9.90;85.10
27072;DHT22;14613;46.308;25.288;2022-12-07T08:54:34;10.00;85.00
27072;DHT22;14613;46.308;25.288;2022-12-07T08:57:02;10.10;84.90
27072;DHT22;14613;46.308;25.288;2022-12-07T08:59:28;10.10;84.70
27072;DHT22;14613;46.308;25.288;2022-12-07T09:01:54;10.10;84.60
27072;DHT22;14613;46.308;25.288;2022-12-07T09:04:20;10.10;84.50
27072;DHT22;14613;46.308;25.288;2022-12-07T09:06:47;10.10;84.20
27072;DHT22;14613;46.308;25.288;2022-12-07T09:09:14;10.20;84.20
27072;DHT22;14613;46.308;25.288;2022-12-07T09:11:40;10.20;84.00
27072;DHT22;14613;46.308;25.288;2022-12-07T09:14:05;10.20;83.80
27072;DHT22;14613;46.308;25.288;2022-12-07T09:16:31;10.20;84.50
27072;DHT22;14613;46.308;25.288;2022-12-07T09:18:57;10.20;83.60
27072;DHT22;14613;46.308;25.288;2022-12-07T09:21:23;10.20;83.60
27072;DHT22;14613;46.308;25.288;2022-12-07T09:23:48;10.20;83.40
27072;DHT22;14613;46.308;25.288;2022-12-07T09:26:14;10.20;83.30
27072;DHT22;14613;46.308;25.288;2022-12-07T09:28:40;10.20;83.30
27072;DHT22;14613;46.308;25.288;2022-12-07T09:31:06;10.20;83.10
27072;DHT22;14613;46.308;25.288;2022-12-07T09:33:32;10.10;82.80
27072;DHT22;14613;46.308;25.288;2022-12-07T09:35:58;10.00;82.70
27072;DHT22;14613;46.308;25.288;2022-12-07T09:38:24;10.00;82.80
27072;DHT22;14613;46.308;25.288;2022-12-07T09:40:53;9.90;82.80
27072;DHT22;14613;46.308;25.288;2022-12-07T09:43:23;9.90;82.70
27072;DHT22;14613;46.308;25.288;2022-12-07T09:45:52;9.90;82.70
27072;DHT22;14613;46.308;25.288;2022-12-07T09:48:38;9.80;82.70
27072;DHT22;14613;46.308;25.288;2022-12-07T09:51:20;9.80;82.80
27072;DHT22;14613;46.308;25.288;2022-12-07T09:53:47;9.80;83.00
27072;DHT22;14613;46.308;25.288;2022-12-07T09:56:19;9.80;83.10
27072;DHT22;14613;46.308;25.288;2022-12-07T09:58:46;9.80;83.10
27072;DHT22;14613;46.308;25.288;2022-12-07T10:01:15;9.80;83.10
27072;DHT22;14613;46.308;25.288;2022-12-07T10:04:10;9.90;83.00
27072;DHT22;14613;46.308;25.288;2022-12-07T10:06:31;9.90;83.00
27072;DHT22;14613;46.308;25.288;2022-12-07T10:08:56;9.90;82.90
27072;DHT22;14613;46.308;25.288;2022-12-07T10:11:22;9.90;82.80
27072;DHT22;14613;46.308;25.288;2022-12-07T10:13:51;9.90;83.00
27072;DHT22;14613;46.308;25.288;2022-12-07T10:18:53;10.00;82.80
27072;DHT22;14613;46.308;25.288;2022-12-07T10:21:22;10.00;82.80
27072;DHT22;14613;46.308;25.288;2022-12-07T10:24:05;10.00;82.80
27072;DHT22;14613;46.308;25.288;2022-12-07T10:26:32;10.10;82.80
27072;DHT22;14613;46.308;25.288;2022-12-07T10:29:02;10.10;82.60
27072;DHT22;14613;46.308;25.288;2022-12-07T10:31:29;10.10;82.30
27072;DHT22;14613;46.308;25.288;2022-12-07T10:34:00;10.10;82.20
27072;DHT22;14613;46.308;25.288;2022-12-07T10:39:18;10.00;82.10
27072;DHT22;14613;46.308;25.288;2022-12-07T10:42:01;10.00;82.20
27072;DHT22;14613;46.308;25.288;2022-12-07T10:44:31;10.00;82.20
27072;DHT22;14613;46.308;25.288;2022-12-07T10:52:42;9.90;81.80
27072;DHT22;14613;46.308;25.288;2022-12-07T10:57:53;9.90;82.00
27072;DHT22;14613;46.308;25.288;2022-12-07T11:00:27;9.80;81.50
27072;DHT22;14613;46.308;25.288;2022-12-07T11:06:03;9.80;81.30
27072;DHT22;14613;46.308;25.288;2022-12-07T11:08:44;9.80;81.30
27072;DHT22;14613;46.308;25.288;2022-12-07T11:14:22;9.70;81.20
27072;DHT22;14613;46.308;25.288;2022-12-07T11:16:57;9.70;81.20
27072;DHT22;14613;46.308;25.288;2022-12-07T11:25:19;9.70;81.00
27072;DHT22;14613;46.308;25.288;2022-12-07T11:28:16;9.80;81.00
27072;DHT22;14613;46.308;25.288;2022-12-07T11:38:17;9.90;80.70
27072;DHT22;14613;46.308;25.288;2022-12-07T11:40:56;10.00;80.60
27072;DHT22;14613;46.308;25.288;2022-12-07T11:43:42;10.00;80.40
27072;DHT22;14613;46.308;25.288;2022-12-07T11:46:14;10.00;80.20
27072;DHT22;14613;46.308;25.288;2022-12-07T11:48:46;10.00;80.00
27072;DHT22;14613;46.308;25.288;2022-12-07T11:51:13;10.00;79.80
27072;DHT22;14613;46.308;25.288;2022-12-07T11:53:48;10.00;79.70
27072;DHT22;14613;46.308;25.288;2022-12-07T11:56:17;10.00;79.60
27072;DHT22;14613;46.308;25.288;2022-12-07T12:03:50;9.90;79.30
27072;DHT22;14613;46.308;25.288;2022-12-07T12:06:16;9.90;80.10
27072;DHT22;14613;46.308;25.288;2022-12-07T12:08:43;9.90;79.30
27072;DHT22;14613;46.308;25.288;2022-12-07T12:17:07;9.90;79.90
27072;DHT22;14613;46.308;25.288;2022-12-07T12:19:44;9.90;79.10
27072;DHT22;14613;46.308;25.288;2022-12-07T12:22:21;9.90;79.20
27072;DHT22;14613;46.308;25.288;2022-12-07T12:24:51;9.80;79.10
27072;DHT22;14613;46.308;25.288;2022-12-07T12:27:26;9.90;79.30
27072;DHT22;14613;46.308;25.288;2022-12-07T12:29:55;10.00;79.20
27072;DHT22;14613;46.308;25.288;2022-12-07T12:37:44;10.00;78.80
27072;DHT22;14613;46.308;25.288;2022-12-07T12:42:52;9.90;78.30
27072;DHT22;14613;46.308;25.288;2022-12-07T12:45:31;9.90;78.20
27072;DHT22;14613;46.308;25.288;2022-12-07T12:48:26;9.90;78.20
27072;DHT22;14613;46.308;25.288;2022-12-07T12:54:03;9.80;78.20
27072;DHT22;14613;46.308;25.288;2022-12-07T12:56:50;9.80;79.10
27072;DHT22;14613;46.308;25.288;2022-12-07T13:01:49;9.70;78.30
27072;DHT22;14613;46.308;25.288;2022-12-07T13:04:34;9.70;78.30
27072;DHT22;14613;46.308;25.288;2022-12-07T13:07:03;9.70;78.10
27072;DHT22;14613;46.308;25.288;2022-12-07T13:09:32;9.70;78.10
27072;DHT22;14613;46.308;25.288;2022-12-07T13:12:13;9.60;78.00
27072;DHT22;14613;46.308;25.288;2022-12-07T13:14:58;9.60;78.10
27072;DHT22;14613;46.308;25.288;2022-12-07T13:20:03;9.60;78.10
27072;DHT22;14613;46.308;25.288;2022-12-07T13:28:02;9.60;78.10
27072;DHT22;14613;46.308;25.288;2022-12-07T13:30:43;9.60;78.10
27072;DHT22;14613;46.308;25.288;2022-12-07T13:33:11;9.60;78.00
27072;DHT22;14613;46.308;25.288;2022-12-07T13:35:37;9.60;78.00
27072;DHT22;14613;46.308;25.288;2022-12-07T13:38:37;9.60;78.00
27072;DHT22;14613;46.308;25.288;2022-12-07T13:41:15;9.60;78.00
27072;DHT22;14613;46.308;25.288;2022-12-07T13:43:49;9.50;78.00
27072;DHT22;14613;46.308;25.288;2022-12-07T13:46:15;9.50;78.00
27072;DHT22;14613;46.308;25.288;2022-12-07T13:48:47;9.50;78.00
27072;DHT22;14613;46.308;25.288;2022-12-07T13:51:24;9.40;78.00
27072;DHT22;14613;46.308;25.288;2022-12-07T13:54:00;9.40;78.00
27072;DHT22;14613;46.308;25.288;2022-12-07T13:56:31;9.40;78.10
27072;DHT22;14613;46.308;25.288;2022-12-07T13:58:58;9.40;78.10
27072;DHT22;14613;46.308;25.288;2022-12-07T14:01:24;9.40;78.20
27072;DHT22;14613;46.308;25.288;2022-12-07T14:03:50;9.30;78.20
27072;DHT22;14613;46.308;25.288;2022-12-07T14:06:27;9.30;78.30
27072;DHT22;14613;46.308;25.288;2022-12-07T14:09:07;9.20;78.30
27072;DHT22;14613;46.308;25.288;2022-12-07T14:11:33;9.20;78.30
27072;DHT22;14613;46.308;25.288;2022-12-07T14:14:01;9.20;78.40
27072;DHT22;14613;46.308;25.288;2022-12-07T14:16:33;9.20;78.40
27072;DHT22;14613;46.308;25.288;2022-12-07T14:19:04;9.20;78.50
27072;DHT22;14613;46.308;25.288;2022-12-07T14:21:34;9.10;78.60
27072;DHT22;14613;46.308;25.288;2022-12-07T14:24:14;9.10;78.60
27072;DHT22;14613;46.308;25.288;2022-12-07T14:26:42;9.10;78.60
27072;DHT22;14613;46.308;25.288;2022-12-07T14:29:31;9.00;78.60
27072;DHT22;14613;46.308;25.288;2022-12-07T14:32:18;9.00;78.60
27072;DHT22;14613;46.308;25.288;2022-12-07T14:37:24;8.90;78.70
27072;DHT22;14613;46.308;25.288;2022-12-07T14:39:50;8.90;78.70
27072;DHT22;14613;46.308;25.288;2022-12-07T14:42:16;8.80;78.80
27072;DHT22;14613;46.308;25.288;2022-12-07T14:44:42;8.80;78.80
27072;DHT22;14613;46.308;25.288;2022-12-07T14:47:12;8.80;78.90
27072;DHT22;14613;46.308;25.288;2022-12-07T14:49:38;8.70;78.90
27072;DHT22;14613;46.308;25.288;2022-12-07T14:52:05;8.70;78.90
27072;DHT22;14613;46.308;25.288;2022-12-07T14:54:32;8.70;79.00
27072;DHT22;14613;46.308;25.288;2022-12-07T14:56:58;8.60;79.00
27072;DHT22;14613;46.308;25.288;2022-12-07T14:59:24;8.60;79.10
27072;DHT22;14613;46.308;25.288;2022-12-07T15:01:50;8.50;79.10
27072;DHT22;14613;46.308;25.288;2022-12-07T15:04:16;8.50;79.10
27072;DHT22;14613;46.308;25.288;2022-12-07T15:06:48;8.50;79.20
27072;DHT22;14613;46.308;25.288;2022-12-07T15:09:19;8.40;79.20
27072;DHT22;14613;46.308;25.288;2022-12-07T15:11:45;8.40;79.30
27072;DHT22;14613;46.308;25.288;2022-12-07T15:14:10;8.30;79.30
27072;DHT22;14613;46.308;25.288;2022-12-07T15:16:40;8.30;79.30
27072;DHT22;14613;46.308;25.288;2022-12-07T15:19:14;8.10;79.60
27072;DHT22;14613;46.308;25.288;2022-12-07T15:21:40;8.10;79.40
27072;DHT22;14613;46.308;25.288;2022-12-07T15:24:07;8.00;79.40
27072;DHT22;14613;46.308;25.288;2022-12-07T15:26:33;7.90;79.60
27072;DHT22;14613;46.308;25.288;2022-12-07T15:28:59;7.80;79.70
27072;DHT22;14613;46.308;25.288;2022-12-07T15:31:24;7.70;79.90
27072;DHT22;14613;46.308;25.288;2022-12-07T15:33:50;7.60;80.20
27072;DHT22;14613;46.308;25.288;2022-12-07T15:36:24;7.60;80.50
27072;DHT22;14613;46.308;25.288;2022-12-07T15:38:51;7.60;80.60
27072;DHT22;14613;46.308;25.288;2022-12-07T15:41:17;7.50;80.60
27072;DHT22;14613;46.308;25.288;2022-12-07T15:43:43;7.50;80.70
27072;DHT22;14613;46.308;25.288;2022-12-07T15:46:36;7.50;80.80
27072;DHT22;14613;46.308;25.288;2022-12-07T15:49:03;7.50;81.60
27072;DHT22;14613;46.308;25.288;2022-12-07T15:51:29;7.40;80.90
27072;DHT22;14613;46.308;25.288;2022-12-07T15:53:57;7.40;81.10
27072;DHT22;14613;46.308;25.288;2022-12-07T15:56:23;7.40;81.10
27072;DHT22;14613;46.308;25.288;2022-12-07T15:58:49;7.40;81.10
27072;DHT22;14613;46.308;25.288;2022-12-07T16:01:18;7.40;81.10
27072;DHT22;14613;46.308;25.288;2022-12-07T16:03:44;7.40;81.10
27072;DHT22;14613;46.308;25.288;2022-12-07T16:06:11;7.40;81.10
27072;DHT22;14613;46.308;25.288;2022-12-07T16:08:37;7.40;81.10
27072;DHT22;14613;46.308;25.288;2022-12-07T16:11:07;7.40;81.20
27072;DHT22;14613;46.308;25.288;2022-12-07T16:13:33;7.40;81.20
27072;DHT22;14613;46.308;25.288;2022-12-07T16:16:03;7.30;81.40
27072;DHT22;14613;46.308;25.288;2022-12-07T16:18:29;7.30;81.40
27072;DHT22;14613;46.308;25.288;2022-12-07T16:20:55;7.30;81.40
27072;DHT22;14613;46.308;25.288;2022-12-07T16:23:20;7.30;81.40
27072;DHT22;14613;46.308;25.288;2022-12-07T16:25:46;7.30;81.40
27072;DHT22;14613;46.308;25.288;2022-12-07T16:28:12;7.30;81.50
27072;DHT22;14613;46.308;25.288;2022-12-07T16:30:37;7.30;81.40
27072;DHT22;14613;46.308;25.288;2022-12-07T16:33:03;7.30;81.40
27072;DHT22;14613;46.308;25.288;2022-12-07T16:35:29;7.30;81.40
27072;DHT22;14613;46.308;25.288;2022-12-07T16:37:55;7.30;81.50
27072;DHT22;14613;46.308;25.288;2022-12-07T16:40:20;7.30;81.50
27072;DHT22;14613;46.308;25.288;2022-12-07T16:42:46;7.30;81.50
27072;DHT22;14613;46.308;25.288;2022-12-07T16:45:12;7.20;81.50
27072;DHT22;14613;46.308;25.288;2022-12-07T16:47:39;7.20;81.50
27072;DHT22;14613;46.308;25.288;2022-12-07T16:50:05;7.20;81.70
27072;DHT22;14613;46.308;25.288;2022-12-07T16:52:31;7.20;81.80
27072;DHT22;14613;46.308;25.288;2022-12-07T16:54:57;7.20;81.80
27072;DHT22;14613;46.308;25.288;2022-12-07T16:57:22;7.10;82.60
27072;DHT22;14613;46.308;25.288;2022-12-07T16:59:48;7.20;81.80
27072;DHT22;14613;46.308;25.288;2022-12-07T17:02:14;7.10;81.60
27072;DHT22;14613;46.308;25.288;2022-12-07T17:04:40;7.10;81.50
27072;DHT22;14613;46.308;25.288;2022-12-07T17:07:08;7.10;81.70
27072;DHT22;14613;46.308;25.288;2022-12-07T17:09:33;7.10;81.80
27072;DHT22;14613;46.308;25.288;2022-12-07T17:12:00;7.10;82.00
27072;DHT22;14613;46.308;25.288;2022-12-07T17:14:26;7.00;82.00
27072;DHT22;14613;46.308;25.288;2022-12-07T17:17:10;7.10;82.10
27072;DHT22;14613;46.308;25.288;2022-12-07T17:19:36;7.10;82.20
27072;DHT22;14613;46.308;25.288;2022-12-07T17:22:02;7.10;82.30
27072;DHT22;14613;46.308;25.288;2022-12-07T17:24:27;7.10;82.10